Time;durP1;ratioP1;P1;durP2;ratioP2;P2;SDS_P1;SDS_P2;PMS_P1;PMS_P2;Temp;Humidity;BMP_temperature;BMP_pressure;BME280_temperature;BME280_humidity;BME280_pressure;Samples;Min_cycle;Max_cycle;Signal;HPM_P1;HPM_P2
2023/12/12 00:02:17;;;;;;;4.57;1.13;;;;;;;7.61;100.00;99774.72;5148234;28;20157;-77
2023/12/12 00:04:47;;;;;;;6.57;1.85;;;;;;;7.57;100.00;99773.16;5155704;28;20113;-75
2023/12/12 00:07:18;;;;;;;9.23;1.05;;;;;;;7.56;100.00;99776.63;5154880;28;20037;-78
2023/12/12 00:09:48;;;;;;;4.47;1.10;;;;;;;7.56;100.00;99784.41;5157113;28;20109;-78
2023/12/12 00:12:18;;;;;;;3.30;0.93;;;;;;;7.60;100.00;99779.97;5142632;28;20436;-78
2023/12/12 00:14:48;;;;;;;5.65;1.48;;;;;;;7.51;100.00;99780.31;5144189;28;20126;-78
2023/12/12 00:17:19;;;;;;;5.28;1.55;;;;;;;7.46;100.00;99782.22;5158983;28;20522;-78
2023/12/12 00:19:49;;;;;;;5.18;1.10;;;;;;;7.53;100.00;99789.72;5161500;28;20114;-78
2023/12/12 00:22:19;;;;;;;4.32;1.25;;;;;;;7.55;100.00;99785.31;5159140;28;20046;-78
2023/12/12 00:24:49;;;;;;;4.88;1.20;;;;;;;7.54;100.00;99788.00;5141694;28;20455;-75
2023/12/12 00:27:20;;;;;;;3.38;1.10;;;;;;;7.62;100.00;99792.00;5154160;28;20048;-78
2023/12/12 00:29:50;;;;;;;5.78;1.38;;;;;;;7.58;100.00;99795.63;5157948;28;20089;-78
2023/12/12 00:32:20;;;;;;;3.25;1.20;;;;;;;7.68;100.00;99790.94;5158813;28;20506;-79
2023/12/12 00:34:51;;;;;;;5.75;1.45;;;;;;;7.60;100.00;99791.22;5145664;28;20061;-77
2023/12/12 00:37:21;;;;;;;9.57;1.50;;;;;;;7.56;100.00;99797.41;5158366;28;20041;-77
2023/12/12 00:39:51;;;;;;;5.93;1.38;;;;;;;7.54;100.00;99799.22;5144685;28;20039;-78
2023/12/12 00:42:23;;;;;;;4.88;1.38;;;;;;;7.47;100.00;99805.56;5158611;28;20053;-78
2023/12/12 00:44:53;;;;;;;8.57;1.80;;;;;;;7.38;100.00;99800.66;5154637;28;20038;-76
2023/12/12 00:47:23;;;;;;;7.57;1.98;;;;;;;7.43;100.00;99811.78;5156437;28;20033;-78
2023/12/12 00:49:53;;;;;;;9.73;2.50;;;;;;;7.55;100.00;99811.31;5158108;28;20048;-78
2023/12/12 00:52:24;;;;;;;10.13;1.90;;;;;;;7.57;100.00;99809.53;5154245;28;20030;-75
2023/12/12 00:54:54;;;;;;;7.93;1.60;;;;;;;7.42;100.00;99811.81;5150772;28;20096;-76
2023/12/12 00:57:25;;;;;;;6.43;1.58;;;;;;;7.51;100.00;99809.75;5137482;28;20489;-75
2023/12/12 00:59:56;;;;;;;5.63;1.50;;;;;;;7.47;100.00;99813.34;5152767;28;20495;-75
2023/12/12 01:02:26;;;;;;;7.43;1.35;;;;;;;7.48;100.00;99809.00;5148814;28;20084;-78
2023/12/12 01:04:56;;;;;;;4.55;1.40;;;;;;;7.53;100.00;99814.91;5158720;28;20026;-78
2023/12/12 01:07:26;;;;;;;5.68;1.58;;;;;;;7.47;100.00;99808.16;5158567;28;20045;-77
2023/12/12 01:09:57;;;;;;;6.05;1.92;;;;;;;7.45;100.00;99809.97;5158965;28;20125;-78
2023/12/12 01:12:28;;;;;;;9.48;1.58;;;;;;;7.44;100.00;99817.81;5148963;28;20109;-78
2023/12/12 01:14:59;;;;;;;7.43;1.58;;;;;;;7.42;100.00;99825.69;5147029;28;20027;-78
2023/12/12 01:17:30;;;;;;;6.60;1.67;;;;;;;7.39;100.00;99822.31;5158536;28;20033;-78
2023/12/12 01:20:00;;;;;;;7.13;1.42;;;;;;;7.53;100.00;99822.69;5155591;28;20046;-79
2023/12/12 01:22:30;;;;;;;5.95;1.50;;;;;;;7.50;100.00;99823.63;5155092;28;20030;-75
2023/12/12 01:25:01;;;;;;;7.43;1.75;;;;;;;7.50;100.00;99825.41;5136670;28;22071;-78
2023/12/12 01:27:31;;;;;;;8.48;1.30;;;;;;;7.53;100.00;99822.69;5136525;28;20403;-78
2023/12/12 01:30:01;;;;;;;8.93;1.40;;;;;;;7.42;100.00;99830.88;5158147;28;20347;-78
2023/12/12 01:32:32;;;;;;;6.13;1.42;;;;;;;7.44;100.00;99823.88;5145956;28;20120;-75
2023/12/12 01:35:02;;;;;;;6.65;1.38;;;;;;;7.37;100.00;99827.56;5154075;28;20022;-78
2023/12/12 01:37:32;;;;;;;7.45;1.58;;;;;;;7.38;100.00;99831.03;5157012;28;20108;-78
2023/12/12 01:40:04;;;;;;;6.03;1.35;;;;;;;7.48;100.00;99825.44;5155626;28;20583;-78
2023/12/12 01:42:35;;;;;;;6.18;1.30;;;;;;;7.51;100.00;99825.34;5156026;28;20080;-77
2023/12/12 01:45:05;;;;;;;7.72;1.63;;;;;;;7.39;100.00;99830.94;5154027;28;20022;-77
2023/12/12 01:47:36;;;;;;;6.80;1.23;;;;;;;7.48;100.00;99820.25;5156770;28;20018;-78
2023/12/12 01:50:07;;;;;;;13.00;1.83;;;;;;;7.51;100.00;99824.50;5152155;28;20426;-75
2023/12/12 01:52:38;;;;;;;3.80;1.00;;;;;;;7.56;100.00;99820.81;5148484;28;20042;-78
2023/12/12 01:55:08;;;;;;;5.30;1.30;;;;;;;7.55;100.00;99826.09;5157854;28;20369;-77
2023/12/12 01:57:39;;;;;;;7.25;1.10;;;;;;;7.41;100.00;99829.19;5159133;28;20038;-78
2023/12/12 02:00:10;;;;;;;5.60;1.63;;;;;;;7.40;100.00;99837.88;5158657;28;20031;-77
2023/12/12 02:02:40;;;;;;;4.38;1.00;;;;;;;7.35;100.00;99842.38;5159689;28;20508;-78
2023/12/12 02:05:11;;;;;;;6.32;1.20;;;;;;;7.34;100.00;99838.06;5157466;28;20033;-77
2023/12/12 02:07:42;;;;;;;5.63;1.45;;;;;;;7.40;100.00;99837.00;5148054;28;20022;-78
2023/12/12 02:10:12;;;;;;;6.30;1.30;;;;;;;7.35;100.00;99836.34;5179051;28;20058;-77
2023/12/12 02:12:42;;;;;;;5.80;1.10;;;;;;;7.28;100.00;99836.59;5144211;28;20029;-76
2023/12/12 02:15:14;;;;;;;14.65;1.33;;;;;;;7.28;100.00;99829.63;5156741;28;20030;-78
2023/12/12 02:17:44;;;;;;;7.65;1.25;;;;;;;7.25;100.00;99839.31;5155531;28;20026;-77
2023/12/12 02:20:15;;;;;;;6.60;1.27;;;;;;;7.28;100.00;99827.91;5158715;28;20192;-75
2023/12/12 02:22:45;;;;;;;6.40;1.35;;;;;;;7.36;100.00;99828.47;5157250;28;20030;-78
2023/12/12 02:25:17;;;;;;;6.80;1.20;;;;;;;7.33;100.00;99820.78;5158392;28;20471;-78
2023/12/12 02:27:47;;;;;;;6.68;1.30;;;;;;;7.31;100.00;99817.38;5145640;28;21419;-77
2023/12/12 02:30:19;;;;;;;7.53;1.00;;;;;;;7.30;100.00;99820.88;5158306;28;20033;-79
2023/12/12 02:32:49;;;;;;;4.80;1.23;;;;;;;7.34;100.00;99811.25;5155777;28;20073;-77
2023/12/12 02:35:19;;;;;;;7.75;1.38;;;;;;;7.28;100.00;99822.69;5156149;28;20054;-79
2023/12/12 02:37:49;;;;;;;3.25;1.05;;;;;;;7.28;100.00;99817.50;5157597;28;20026;-78
2023/12/12 02:40:20;;;;;;;6.95;1.42;;;;;;;7.31;100.00;99822.59;5157404;28;20026;-77
2023/12/12 02:42:51;;;;;;;5.07;1.40;;;;;;;7.30;100.00;99814.84;5157224;28;20033;-78
2023/12/12 02:45:21;;;;;;;4.70;1.10;;;;;;;7.33;100.00;99809.56;5158589;28;20377;-78
2023/12/12 02:47:52;;;;;;;3.25;1.05;;;;;;;7.28;100.00;99806.25;5156039;28;20265;-78
2023/12/12 02:50:22;;;;;;;7.05;1.20;;;;;;;7.29;100.00;99805.34;5156181;28;20416;-78
2023/12/12 02:52:52;;;;;;;6.40;1.48;;;;;;;7.20;100.00;99810.88;5157642;28;20494;-77
2023/12/12 02:55:22;;;;;;;9.13;1.65;;;;;;;7.22;100.00;99810.78;5157008;28;20207;-78
2023/12/12 02:57:53;;;;;;;5.15;1.13;;;;;;;7.22;100.00;99816.84;5156565;28;20045;-78
2023/12/12 03:00:23;;;;;;;8.70;1.63;;;;;;;7.12;100.00;99814.63;5156474;28;20093;-78
2023/12/12 03:02:53;;;;;;;5.90;1.20;;;;;;;7.17;100.00;99821.38;5147352;28;20114;-78
2023/12/12 03:05:24;;;;;;;6.22;1.20;;;;;;;7.13;100.00;99811.13;5144529;28;20303;-75
2023/12/12 03:07:54;;;;;;;7.10;1.30;;;;;;;7.04;100.00;99806.22;5158578;28;20440;-79
2023/12/12 03:10:24;;;;;;;9.00;1.60;;;;;;;6.99;100.00;99808.13;5155488;28;20076;-75
2023/12/12 03:12:55;;;;;;;4.07;1.30;;;;;;;6.95;100.00;99815.19;5156695;28;20030;-78
2023/12/12 03:15:25;;;;;;;5.53;1.35;;;;;;;7.07;100.00;99806.16;5146115;28;20586;-75
2023/12/12 03:17:55;;;;;;;3.65;1.10;;;;;;;7.05;100.00;99807.91;5158273;28;20030;-77
2023/12/12 03:20:26;;;;;;;7.50;1.20;;;;;;;6.97;100.00;99815.13;5153876;28;20034;-77
2023/12/12 03:22:56;;;;;;;6.50;1.20;;;;;;;7.05;100.00;99807.91;5154041;28;20033;-77
2023/12/12 03:25:27;;;;;;;7.20;1.40;;;;;;;6.96;100.00;99805.66;5160254;28;20034;-78
2023/12/12 03:27:57;;;;;;;3.58;1.25;;;;;;;6.98;100.00;99801.25;5160886;28;20038;-78
2023/12/12 03:30:27;;;;;;;5.70;1.38;;;;;;;6.97;100.00;99807.34;5160173;28;20451;-77
2023/12/12 03:32:58;;;;;;;4.25;1.27;;;;;;;6.92;100.00;99801.47;5160384;28;20026;-78
2023/12/12 03:35:28;;;;;;;3.63;1.10;;;;;;;6.93;100.00;99803.16;5160333;28;20033;-78
2023/12/12 03:37:58;;;;;;;4.78;1.20;;;;;;;6.86;100.00;99797.31;5159999;28;20125;-78
2023/12/12 03:40:28;;;;;;;4.32;1.10;;;;;;;6.81;100.00;99800.97;5159089;28;20030;-78
2023/12/12 03:42:59;;;;;;;5.22;1.05;;;;;;;6.68;100.00;99802.25;5159998;28;20392;-78
2023/12/12 03:45:29;;;;;;;8.38;1.20;;;;;;;6.66;100.00;99801.44;5158963;28;20118;-78
2023/12/12 03:47:59;;;;;;;6.20;1.33;;;;;;;6.64;100.00;99816.22;5159606;28;20026;-78
2023/12/12 03:50:29;;;;;;;4.03;1.00;;;;;;;6.52;100.00;99801.03;5159064;28;20022;-78
2023/12/12 03:53:00;;;;;;;6.55;1.33;;;;;;;6.47;100.00;99808.13;5159073;28;20392;-78
2023/12/12 03:55:30;;;;;;;6.95;1.52;;;;;;;6.38;100.00;99814.44;5159971;28;20153;-77
2023/12/12 03:58:00;;;;;;;7.43;1.60;;;;;;;6.34;100.00;99812.84;5160006;28;20037;-79
2023/12/12 04:00:31;;;;;;;8.43;1.40;;;;;;;6.37;100.00;99809.28;5158487;28;20185;-77
2023/12/12 04:03:02;;;;;;;7.55;1.70;;;;;;;6.27;100.00;99820.88;5157569;28;20026;-78
2023/12/12 04:05:32;;;;;;;6.40;1.77;;;;;;;6.21;100.00;99819.31;5159407;28;20571;-78
2023/12/12 04:08:03;;;;;;;5.15;1.20;;;;;;;6.13;100.00;99821.28;5159436;28;20037;-77
2023/12/12 04:10:34;;;;;;;6.07;1.38;;;;;;;6.08;100.00;99817.97;5159295;28;20335;-79
2023/12/12 04:13:04;;;;;;;7.85;1.58;;;;;;;6.02;100.00;99825.94;5142837;28;20188;-77
2023/12/12 04:15:34;;;;;;;8.55;1.42;;;;;;;6.01;100.00;99820.78;5160323;28;20117;-78
2023/12/12 04:18:05;;;;;;;9.55;1.70;;;;;;;5.93;100.00;99817.59;5158640;28;20030;-77
2023/12/12 04:20:35;;;;;;;7.72;1.70;;;;;;;5.90;100.00;99810.72;5159275;28;20025;-77
2023/12/12 04:23:05;;;;;;;6.57;1.45;;;;;;;5.83;100.00;99823.91;5150929;28;20440;-78
2023/12/12 04:25:36;;;;;;;5.70;1.52;;;;;;;5.77;100.00;99822.31;5158847;28;20246;-78
2023/12/12 04:28:07;;;;;;;5.95;1.60;;;;;;;5.75;100.00;99833.63;5159989;28;20026;-78
2023/12/12 04:30:37;;;;;;;10.13;2.00;;;;;;;5.69;100.00;99826.88;5158746;28;20026;-78
2023/12/12 04:33:07;;;;;;;13.00;2.20;;;;;;;5.67;100.00;99828.66;5158892;28;20026;-76
2023/12/12 04:35:38;;;;;;;8.05;1.60;;;;;;;5.70;100.00;99832.88;5144627;28;20317;-78
2023/12/12 04:38:08;;;;;;;7.18;2.00;;;;;;;5.72;100.00;99818.16;5146157;28;20018;-78
2023/12/12 04:40:38;;;;;;;4.78;2.00;;;;;;;5.70;100.00;99828.56;5158934;28;20548;-78
2023/12/12 04:43:09;;;;;;;4.32;1.60;;;;;;;5.62;100.00;99830.53;5145590;28;20029;-78
2023/12/12 04:45:39;;;;;;;9.23;1.77;;;;;;;5.56;100.00;99840.22;5158247;28;20030;-75
2023/12/12 04:48:09;;;;;;;5.85;1.95;;;;;;;5.51;100.00;99847.25;5156270;28;20037;-78
2023/12/12 04:50:40;;;;;;;8.15;1.90;;;;;;;5.45;100.00;99847.41;5145276;28;20510;-78
2023/12/12 04:53:10;;;;;;;4.90;1.73;;;;;;;5.41;100.00;99849.22;5156476;28;20026;-78
2023/12/12 04:55:40;;;;;;;8.52;2.03;;;;;;;5.34;100.00;99851.19;5148207;28;20034;-75
2023/12/12 04:58:10;;;;;;;6.57;1.73;;;;;;;5.32;100.00;99855.56;5158527;28;20048;-77
2023/12/12 05:00:41;;;;;;;5.95;2.17;;;;;;;5.28;100.00;99851.31;5157166;28;20412;-75
2023/12/12 05:03:11;;;;;;;5.40;1.70;;;;;;;5.19;100.00;99855.00;5158213;28;20732;-78
2023/12/12 05:05:41;;;;;;;5.72;1.80;;;;;;;5.12;100.00;99852.63;5156231;28;20041;-75
2023/12/12 05:08:12;;;;;;;5.43;1.90;;;;;;;5.10;100.00;99844.88;5158908;28;20440;-78
2023/12/12 05:10:42;;;;;;;6.88;1.60;;;;;;;5.10;100.00;99844.88;5155144;28;20065;-75
2023/12/12 05:13:12;;;;;;;6.82;1.92;;;;;;;5.08;100.00;99841.50;5158129;28;20033;-78
2023/12/12 05:15:42;;;;;;;12.05;2.00;;;;;;;5.10;100.00;99844.03;5156589;28;20086;-75
2023/12/12 05:18:13;;;;;;;4.93;1.80;;;;;;;5.03;100.00;99853.72;5158940;28;20041;-78
2023/12/12 05:20:43;;;;;;;7.72;1.90;;;;;;;5.03;100.00;99848.53;5149841;28;20042;-75
2023/12/12 05:23:14;;;;;;;3.47;1.60;;;;;;;4.95;100.00;99849.63;5152905;28;20158;-78
2023/12/12 05:25:44;;;;;;;5.65;1.67;;;;;;;4.87;100.00;99849.81;5157083;28;20559;-76
2023/12/12 05:28:17;;;;;;;8.00;2.13;;;;;;;4.90;100.00;99851.44;5157894;28;20040;-77
2023/12/12 05:30:47;;;;;;;7.07;1.95;;;;;;;4.86;100.00;99850.69;5156829;28;20022;-75
2023/12/12 05:33:18;;;;;;;9.20;2.13;;;;;;;4.79;100.00;99856.88;5158773;28;20022;-78
2023/12/12 05:35:48;;;;;;;10.98;2.10;;;;;;;4.79;100.00;99856.06;5156908;28;20153;-78
2023/12/12 05:38:19;;;;;;;6.13;1.85;;;;;;;4.80;100.00;99858.59;5146216;28;20030;-76
2023/12/12 05:40:49;;;;;;;5.30;1.73;;;;;;;4.62;100.00;99847.84;5156555;28;20034;-76
2023/12/12 05:43:20;;;;;;;6.65;1.77;;;;;;;4.57;100.00;99853.09;5158218;28;20030;-78
2023/12/12 05:45:50;;;;;;;5.47;1.67;;;;;;;4.62;100.00;99856.44;5146339;28;20084;-78
2023/12/12 05:48:21;;;;;;;9.85;1.92;;;;;;;4.42;100.00;99858.63;5158591;28;20061;-78
2023/12/12 05:50:51;;;;;;;9.32;1.70;;;;;;;4.29;100.00;99862.34;5157977;28;20065;-78
2023/12/12 05:53:21;;;;;;;4.43;1.90;;;;;;;4.26;100.00;99872.78;5158119;28;20472;-78
2023/12/12 05:55:52;;;;;;;7.82;2.20;;;;;;;4.16;100.00;99863.50;5159327;28;20037;-78
2023/12/12 05:58:22;;;;;;;5.35;1.92;;;;;;;4.18;100.00;99864.34;5160488;28;20068;-78
2023/12/12 06:00:52;;;;;;;10.20;2.45;;;;;;;4.14;100.00;99874.78;5155459;28;20598;-78
2023/12/12 06:03:23;;;;;;;4.63;1.75;;;;;;;4.17;100.00;99872.13;5157373;28;20491;-78
2023/12/12 06:05:53;;;;;;;7.60;1.73;;;;;;;4.16;100.00;99865.25;5157593;28;20038;-77
2023/12/12 06:08:23;;;;;;;9.15;2.03;;;;;;;4.13;100.00;99865.31;5157929;28;20034;-77
2023/12/12 06:10:53;;;;;;;5.95;1.95;;;;;;;4.13;100.00;99861.00;5138949;28;20522;-75
2023/12/12 06:13:24;;;;;;;5.00;1.80;;;;;;;4.09;100.00;99859.34;5145600;28;20038;-74
2023/12/12 06:15:56;;;;;;;5.65;2.38;;;;;;;4.03;100.00;99863.81;5154557;28;20507;-77
2023/12/12 06:18:27;;;;;;;5.97;2.22;;;;;;;3.92;100.00;99858.84;5146928;28;20153;-78
2023/12/12 06:20:57;;;;;;;6.47;2.40;;;;;;;3.94;100.00;99862.25;5140225;28;20129;-77
2023/12/12 06:23:29;;;;;;;6.20;2.83;;;;;;;3.91;100.00;99862.31;5156621;28;20441;-78
2023/12/12 06:25:59;;;;;;;8.18;2.53;;;;;;;4.00;100.00;99863.88;5157499;28;20037;-76
2023/12/12 06:28:29;;;;;;;6.57;2.35;;;;;;;4.06;100.00;99869.78;5156727;28;20499;-77
2023/12/12 06:30:59;;;;;;;10.02;2.80;;;;;;;4.14;100.00;99862.69;5156268;28;20029;-78
2023/12/12 06:33:30;;;;;;;5.45;2.45;;;;;;;4.24;100.00;99866.78;5143676;28;20026;-78
2023/12/12 06:36:00;;;;;;;9.32;2.40;;;;;;;4.26;100.00;99872.78;5154255;28;21400;-78
2023/12/12 06:38:30;;;;;;;6.93;2.20;;;;;;;4.37;100.00;99863.06;5154089;28;20264;-77
2023/12/12 06:41:01;;;;;;;7.30;1.98;;;;;;;4.21;100.00;99864.28;5146394;28;20559;-77
2023/12/12 06:43:31;;;;;;;7.10;2.00;;;;;;;4.14;100.00;99867.03;5155351;28;20073;-78
2023/12/12 06:46:02;;;;;;;6.55;1.80;;;;;;;4.18;100.00;99863.47;5141440;28;20064;-78
2023/12/12 06:48:32;;;;;;;7.22;1.90;;;;;;;4.16;100.00;99860.09;5152579;28;20121;-77
2023/12/12 06:51:06;;;;;;;4.75;2.10;;;;;;;4.23;100.00;99871.97;5155814;28;20113;-78
2023/12/12 06:53:37;;;;;;;5.63;2.38;;;;;;;4.24;100.00;99865.91;5155728;28;20023;-78
2023/12/12 06:56:09;;;;;;;5.65;2.10;;;;;;;4.26;100.00;99867.59;5155490;28;20030;-78
2023/12/12 06:58:39;;;;;;;8.32;2.35;;;;;;;4.22;100.00;99870.28;5156597;28;20461;-77
2023/12/12 07:01:09;;;;;;;5.82;2.00;;;;;;;4.24;100.00;99869.38;5156234;28;20160;-78
2023/12/12 07:03:40;;;;;;;5.95;1.90;;;;;;;4.16;100.00;99865.25;5156562;28;20108;-77
2023/12/12 07:06:10;;;;;;;5.72;2.03;;;;;;;4.18;100.00;99859.19;5168136;23;20058;-73
2023/12/12 07:08:40;;;;;;;6.55;1.90;;;;;;;4.16;100.00;99863.50;5150963;28;20030;-72
2023/12/12 07:11:11;;;;;;;6.53;1.88;;;;;;;4.15;100.00;99859.22;5152653;28;20024;-71
2023/12/12 07:13:42;;;;;;;7.90;1.77;;;;;;;4.14;100.00;99859.28;5152304;28;20127;-72
2023/12/12 07:16:12;;;;;;;11.05;2.80;;;;;;;4.13;100.00;99861.00;5157691;28;20558;-73
2023/12/12 07:18:42;;;;;;;7.10;2.42;;;;;;;4.11;100.00;99862.75;5167072;28;20030;-72
2023/12/12 07:21:15;;;;;;;6.30;2.08;;;;;;;4.07;100.00;99861.13;5163794;28;20507;-72
2023/12/12 07:23:47;;;;;;;10.20;3.15;;;;;;;4.11;100.00;99859.34;5164187;28;20022;-73
2023/12/12 07:26:20;;;;;;;8.90;2.80;;;;;;;4.18;100.00;99864.34;5164910;28;20554;-73
2023/12/12 07:28:51;;;;;;;6.90;2.45;;;;;;;4.13;100.00;99867.91;5164146;28;20563;-72
2023/12/12 07:31:21;;;;;;;4.93;2.60;;;;;;;4.12;100.00;99869.63;5162587;28;20077;-72
2023/12/12 07:33:52;;;;;;;6.95;2.75;;;;;;;4.15;100.00;99866.97;5163483;28;20062;-73
2023/12/12 07:36:22;;;;;;;8.00;2.92;;;;;;;4.13;100.00;99866.16;5166076;28;20026;-73
2023/12/12 07:38:53;;;;;;;7.38;2.53;;;;;;;4.11;100.00;99865.34;5163847;28;20040;-72
2023/12/12 07:41:23;;;;;;;5.85;2.30;;;;;;;4.13;100.00;99875.66;5163354;28;20031;-72
2023/12/12 07:43:54;;;;;;;6.13;2.40;;;;;;;4.18;100.00;99874.69;5164723;28;20088;-72
2023/12/12 07:46:24;;;;;;;8.20;2.20;;;;;;;4.02;100.00;99872.44;5161877;28;20029;-70
2023/12/12 07:48:54;;;;;;;6.80;3.05;;;;;;;3.98;100.00;99871.66;5164883;28;20092;-72
2023/12/12 07:51:25;;;;;;;5.03;2.70;;;;;;;3.98;100.00;99876.81;5162158;28;20018;-72
2023/12/12 07:53:56;;;;;;;6.80;2.60;;;;;;;4.00;100.00;99877.66;5162734;28;20084;-72
2023/12/12 07:56:26;;;;;;;4.93;2.63;;;;;;;4.25;100.00;99875.38;5164663;28;20038;-72
2023/12/12 07:58:56;;;;;;;7.18;2.70;;;;;;;4.20;100.00;99874.63;5165915;28;20041;-71
2023/12/12 08:01:27;;;;;;;6.97;3.03;;;;;;;4.18;100.00;99877.28;5163237;28;20508;-72
2023/12/12 08:03:57;;;;;;;9.13;2.45;;;;;;;4.19;100.00;99881.56;5164594;28;20057;-73
2023/12/12 08:06:29;;;;;;;6.75;2.95;;;;;;;4.15;100.00;99882.47;5162038;28;20436;-73
2023/12/12 08:08:59;;;;;;;7.55;2.92;;;;;;;4.17;100.00;99882.47;5169581;28;20084;-73
2023/12/12 08:11:30;;;;;;;5.15;2.72;;;;;;;4.29;100.00;99882.22;5168493;28;20025;-71
2023/12/12 08:14:00;;;;;;;11.52;4.90;;;;;;;4.33;100.00;99884.69;5168923;28;20033;-71
2023/12/12 08:16:31;;;;;;;11.88;5.35;;;;;;;4.52;100.00;99883.41;5167873;28;20080;-72
2023/12/12 08:19:01;;;;;;;9.32;3.85;;;;;;;4.58;100.00;99885.00;5166697;28;20030;-72
2023/12/12 08:21:31;;;;;;;8.43;3.38;;;;;;;4.58;100.00;99891.03;5168118;28;20038;-72
2023/12/12 08:24:03;;;;;;;7.55;3.05;;;;;;;4.73;100.00;99884.63;5167289;28;20054;-70
2023/12/12 08:26:41;;;;;;;8.90;2.60;;;;;;;4.96;100.00;99885.81;5166243;28;20022;-73
2023/12/12 08:29:13;;;;;;;6.07;2.55;;;;;;;4.80;100.00;99884.47;5165687;28;20027;-71
2023/12/12 08:31:43;;;;;;;5.78;2.75;;;;;;;4.92;100.00;99881.59;5166271;28;20053;-72
2023/12/12 08:34:13;;;;;;;10.00;3.60;;;;;;;5.05;100.00;99885.59;5164593;28;20058;-71
2023/12/12 08:36:43;;;;;;;10.68;3.50;;;;;;;4.94;100.00;99887.59;5164293;28;20056;-72
2023/12/12 08:39:14;;;;;;;8.00;3.58;;;;;;;4.96;100.00;99878.03;5166856;28;20029;-71
2023/12/12 08:41:44;;;;;;;8.80;3.63;;;;;;;5.21;100.00;99889.50;5168188;28;20038;-72
2023/12/12 08:44:14;;;;;;;10.55;4.53;;;;;;;5.03;100.00;99882.19;5166649;28;20042;-72
2023/12/12 08:46:45;;;;;;;7.53;3.65;;;;;;;5.04;100.00;99891.66;5163565;28;20512;-72
2023/12/12 08:49:18;;;;;;;10.60;4.28;;;;;;;5.03;100.00;99892.56;5162710;28;20034;-73
2023/12/12 08:51:49;;;;;;;12.82;4.38;;;;;;;5.01;100.00;99889.13;5164616;28;20041;-70
2023/12/12 08:54:20;;;;;;;9.98;4.15;;;;;;;5.05;100.00;99888.19;5165845;28;20148;-72
2023/12/12 08:56:52;;;;;;;9.35;4.80;;;;;;;5.07;100.00;99886.41;5169447;28;20392;-73
2023/12/12 08:59:22;;;;;;;13.00;4.60;;;;;;;5.20;100.00;99881.75;5165026;28;20558;-72
2023/12/12 09:01:53;;;;;;;7.95;4.47;;;;;;;5.37;100.00;99875.28;5164901;28;20030;-71
2023/12/12 09:04:23;;;;;;;7.50;4.00;;;;;;;5.54;100.00;99875.69;5163619;28;20037;-71
2023/12/12 09:06:54;;;;;;;9.40;3.85;;;;;;;5.50;100.00;99874.03;5165103;28;20037;-72
2023/12/12 09:09:27;;;;;;;11.70;4.50;;;;;;;5.59;100.00;99881.59;5162393;28;21670;-71
2023/12/12 09:11:58;;;;;;;9.52;4.45;;;;;;;5.81;100.00;99877.53;5165937;28;20439;-72
2023/12/12 09:14:28;;;;;;;7.88;4.22;;;;;;;6.11;100.00;99881.88;5163088;28;20102;-72
2023/12/12 09:16:59;;;;;;;9.75;4.72;;;;;;;6.13;100.00;99877.50;5162681;28;20034;-72
2023/12/12 09:19:29;;;;;;;17.50;8.10;;;;;;;6.04;100.00;99878.59;5164896;28;20117;-73
2023/12/12 09:22:00;;;;;;;12.25;6.07;;;;;;;6.13;100.00;99887.88;5162902;28;20113;-72
2023/12/12 09:24:30;;;;;;;11.77;4.47;;;;;;;6.19;100.00;99890.28;5160856;28;20596;-72
2023/12/12 09:27:00;;;;;;;9.35;4.47;;;;;;;6.31;100.00;99884.75;5166011;28;20026;-73
2023/12/12 09:29:31;;;;;;;13.82;5.03;;;;;;;6.28;100.00;99890.03;5163159;28;20041;-72
2023/12/12 09:32:01;;;;;;;10.80;4.45;;;;;;;6.14;100.00;99894.75;5164301;28;20026;-72
2023/12/12 09:34:31;;;;;;;9.80;4.32;;;;;;;6.13;100.00;99880.94;5164179;28;20205;-72
2023/12/12 09:37:02;;;;;;;8.63;4.03;;;;;;;6.22;100.00;99885.03;5165509;28;20411;-72
2023/12/12 09:39:32;;;;;;;10.95;5.78;;;;;;;6.20;100.00;99885.06;5164396;28;20053;-72
2023/12/12 09:42:10;;;;;;;8.93;4.03;;;;;;;6.36;100.00;99888.03;5168067;28;20026;-72
2023/12/12 09:44:43;;;;;;;7.68;3.72;;;;;;;6.34;100.00;99872.53;5166563;28;20029;-74
2023/12/12 09:47:14;;;;;;;7.90;3.88;;;;;;;6.32;100.00;99876.06;5161439;28;20516;-72
2023/12/12 09:49:47;;;;;;;6.68;3.72;;;;;;;6.38;100.00;99865.47;5166447;28;20030;-72
2023/12/12 09:52:18;;;;;;;6.38;3.55;;;;;;;6.48;100.00;99864.31;5166253;28;20018;-72
2023/12/12 09:54:49;;;;;;;8.20;3.67;;;;;;;6.47;100.00;99854.84;5166509;28;20034;-73
2023/12/12 09:57:21;;;;;;;10.40;4.13;;;;;;;6.53;100.00;99860.69;5162763;28;20087;-71
2023/12/12 09:59:51;;;;;;;9.32;3.83;;;;;;;6.67;100.00;99839.50;5164436;28;20034;-71
2023/12/12 10:02:26;;;;;;;6.90;3.60;;;;;;;6.78;100.00;99834.81;5162800;28;20045;-72
2023/12/12 10:04:57;;;;;;;6.53;3.10;;;;;;;6.86;100.00;99838.88;5164537;28;20029;-71
2023/12/12 10:07:28;;;;;;;7.47;3.85;;;;;;;7.06;100.00;99838.19;5162166;28;20626;-72
2023/12/12 10:09:59;;;;;;;7.43;3.58;;;;;;;7.13;100.00;99837.09;5165327;28;20198;-72
2023/12/12 10:12:29;;;;;;;8.88;4.00;;;;;;;7.18;100.00;99828.25;5165107;28;20116;-71
2023/12/12 10:15:00;;;;;;;10.77;3.58;;;;;;;7.05;100.00;99826.97;5165055;28;20494;-71
2023/12/12 10:17:40;;;;;;;9.25;3.88;;;;;;;7.16;100.00;99822.28;5165851;28;20030;-70
2023/12/12 10:20:10;;;;;;;9.95;4.20;;;;;;;7.19;100.00;99822.16;5163452;28;20037;-72
2023/12/12 10:22:41;;;;;;;8.85;3.80;;;;;;;7.31;100.00;99809.59;5165133;28;20021;-72
2023/12/12 10:25:12;;;;;;;9.00;4.60;;;;;;;7.23;100.00;99810.75;5162449;28;20468;-72
2023/12/12 10:27:43;;;;;;;10.07;4.68;;;;;;;7.24;100.00;99798.63;5162077;28;20039;-72
2023/12/12 10:30:13;;;;;;;7.53;3.90;;;;;;;7.25;100.00;99795.13;5160757;28;20030;-71
2023/12/12 10:32:44;;;;;;;9.10;3.70;;;;;;;7.38;100.00;99792.88;5162485;28;20030;-72
2023/12/12 10:35:14;;;;;;;7.80;3.95;;;;;;;7.43;100.00;99793.56;5164471;28;20022;-72
2023/12/12 10:37:45;;;;;;;7.40;4.40;;;;;;;7.46;100.00;99793.47;5165444;28;20476;-72
2023/12/12 10:40:17;;;;;;;7.90;4.15;;;;;;;7.51;100.00;99794.13;5164974;28;20034;-72
2023/12/12 10:42:49;;;;;;;6.50;3.42;;;;;;;7.58;100.00;99784.38;5163789;28;20033;-73
2023/12/12 10:45:20;;;;;;;6.70;3.58;;;;;;;7.59;100.00;99791.28;5166061;28;20038;-73
2023/12/12 10:47:53;;;;;;;10.23;3.75;;;;;;;7.65;100.00;99789.28;5165373;28;20062;-70
2023/12/12 10:50:26;;;;;;;8.40;3.63;;;;;;;7.61;100.00;99785.13;5167402;28;20042;-72
2023/12/12 10:52:57;;;;;;;9.38;3.95;;;;;;;7.64;100.00;99779.81;5166076;28;21048;-71
2023/12/12 10:55:27;;;;;;;7.15;3.60;;;;;;;7.69;100.00;99783.06;5162061;28;20029;-72
2023/12/12 10:57:58;;;;;;;5.68;3.47;;;;;;;7.97;100.00;99773.34;5163470;28;20029;-72
2023/12/12 11:00:29;;;;;;;10.68;4.30;;;;;;;7.96;100.00;99783.81;5162089;28;20410;-72
2023/12/12 11:03:00;;;;;;;7.00;3.20;;;;;;;7.95;100.00;99772.56;5164044;28;20327;-72
2023/12/12 11:05:30;;;;;;;6.85;3.42;;;;;;;7.99;100.00;99766.34;5163195;28;20117;-73
2023/12/12 11:08:03;;;;;;;9.30;3.85;;;;;;;7.96;100.00;99763.84;5164695;28;20436;-72
2023/12/12 11:10:34;;;;;;;8.32;3.95;;;;;;;8.20;100.00;99757.72;5164950;28;20522;-71
2023/12/12 11:13:06;;;;;;;7.93;3.40;;;;;;;8.12;100.00;99741.53;5166183;28;20030;-72
2023/12/12 11:15:37;;;;;;;8.20;3.47;;;;;;;8.22;100.00;99744.66;5163262;28;20379;-72
2023/12/12 11:18:09;;;;;;;10.55;5.15;;;;;;;7.98;100.00;99743.81;5163373;28;20022;-72
2023/12/12 11:20:41;;;;;;;6.90;3.92;;;;;;;8.00;100.00;99747.22;5164014;28;20168;-72
2023/12/12 11:23:52;;;;;;;6.97;2.95;;;;;;;8.03;100.00;99731.47;5162980;28;20116;-73
2023/12/12 11:26:26;;;;;;;6.43;3.05;;;;;;;7.94;100.00;99721.44;5163825;28;20030;-72
2023/12/12 11:28:57;;;;;;;8.40;3.35;;;;;;;7.92;100.00;99728.47;5160163;28;20045;-72
2023/12/12 11:31:28;;;;;;;9.85;4.40;;;;;;;7.98;100.00;99727.34;5161780;28;20038;-72
2023/12/12 11:34:03;;;;;;;9.63;5.32;;;;;;;8.00;100.00;99717.72;5164233;28;20101;-72
2023/12/12 11:36:53;;;;;;;8.60;4.00;;;;;;;8.04;100.00;99719.34;5164478;28;20041;-71
2023/12/12 11:39:30;;;;;;;7.70;3.53;;;;;;;8.09;100.00;99720.00;5163251;28;20058;-71
2023/12/12 11:42:06;;;;;;;10.05;4.07;;;;;;;8.21;100.00;99715.19;5164951;28;20030;-73
2023/12/12 11:44:54;;;;;;;7.82;3.38;;;;;;;8.33;100.00;99719.03;5167589;28;20038;-72
2023/12/12 11:47:27;;;;;;;8.30;3.58;;;;;;;8.29;100.00;99723.53;5168756;28;20536;-70
2023/12/12 11:50:18;;;;;;;6.82;3.17;;;;;;;8.40;100.00;99725.72;5166589;28;20018;-72